Time;durP1;ratioP1;P1;durP2;ratioP2;P2;SDS_P1;SDS_P2;PMS_P1;PMS_P2;Temp;Humidity;BMP_temperature;BMP_pressure;BME280_temperature;BME280_humidity;BME280_pressure;Samples;Min_cycle;Max_cycle;Signal;HPM_P1;HPM_P2
2024/02/04 00:01:40;;;;;;;15.85;3.03;;;7.60;99.90;;;;;;4935862;28;20068;-76
2024/02/04 00:04:06;;;;;;;19.05;3.63;;;7.60;99.90;;;;;;4952765;28;20089;-76
2024/02/04 00:06:31;;;;;;;21.63;3.78;;;7.60;99.90;;;;;;4934640;29;20050;-77
2024/02/04 00:08:57;;;;;;;16.98;3.15;;;7.60;99.90;;;;;;4938489;29;20075;-75
2024/02/04 00:11:22;;;;;;;18.52;3.63;;;7.60;99.90;;;;;;4939396;29;20051;-74
2024/02/04 00:13:48;;;;;;;24.88;3.60;;;7.60;99.90;;;;;;4956112;29;20032;-74
2024/02/04 00:16:14;;;;;;;16.20;4.22;;;7.60;99.90;;;;;;4956476;28;20020;-75
2024/02/04 00:18:39;;;;;;;17.05;3.40;;;7.60;99.90;;;;;;4956642;28;20024;-76
2024/02/04 00:21:05;;;;;;;19.48;2.92;;;7.60;99.90;;;;;;4938785;29;20047;-75
2024/02/04 00:23:30;;;;;;;20.10;3.47;;;7.50;99.90;;;;;;4939220;29;20046;-75
2024/02/04 00:25:56;;;;;;;21.48;3.55;;;7.50;99.90;;;;;;4955764;28;20028;-75
2024/02/04 00:28:21;;;;;;;24.20;4.10;;;7.50;99.90;;;;;;4954131;29;20050;-74
2024/02/04 00:30:49;;;;;;;21.88;3.78;;;7.50;99.90;;;;;;4956044;28;20051;-76
2024/02/04 00:33:15;;;;;;;15.80;3.63;;;7.50;99.90;;;;;;4938886;29;20038;-76
2024/02/04 00:35:41;;;;;;;19.58;3.20;;;7.50;99.90;;;;;;4955271;28;20034;-75
2024/02/04 00:38:08;;;;;;;16.27;3.15;;;7.40;99.90;;;;;;4938863;29;20026;-75
2024/02/04 00:40:34;;;;;;;18.38;4.07;;;7.40;99.90;;;;;;4938784;29;20070;-75
2024/02/04 00:43:00;;;;;;;21.30;3.95;;;7.40;99.90;;;;;;4955486;28;20027;-74
2024/02/04 00:45:26;;;;;;;20.55;3.75;;;7.40;99.90;;;;;;4955317;28;20050;-76
2024/02/04 00:47:51;;;;;;;23.13;4.20;;;7.40;99.90;;;;;;4955926;28;20087;-76
2024/02/04 00:50:17;;;;;;;22.08;4.53;;;7.40;99.90;;;;;;4954154;28;20056;-75
2024/02/04 00:52:43;;;;;;;22.88;3.80;;;7.40;99.90;;;;;;4956183;28;20027;-75
2024/02/04 00:55:09;;;;;;;16.85;4.38;;;7.30;99.90;;;;;;4938282;29;20054;-75
2024/02/04 00:57:35;;;;;;;21.33;4.05;;;7.30;99.90;;;;;;4955557;29;20062;-76
2024/02/04 01:00:00;;;;;;;21.25;4.82;;;7.40;99.90;;;;;;4955790;28;20028;-77
2024/02/04 01:02:26;;;;;;;16.30;3.88;;;7.40;99.90;;;;;;4955563;28;20066;-75
2024/02/04 01:04:51;;;;;;;18.77;3.80;;;7.40;99.90;;;;;;4937790;29;20054;-75
2024/02/04 01:07:17;;;;;;;19.00;4.63;;;7.40;99.90;;;;;;4955604;28;20082;-77
2024/02/04 01:09:43;;;;;;;25.77;5.22;;;7.40;99.90;;;;;;4937858;29;20043;-77
2024/02/04 01:12:08;;;;;;;24.60;4.50;;;7.40;99.90;;;;;;4938011;29;20023;-76
2024/02/04 01:14:34;;;;;;;20.45;4.63;;;7.40;99.90;;;;;;4938441;28;20035;-73
2024/02/04 01:17:00;;;;;;;21.85;4.75;;;7.40;99.90;;;;;;4937245;29;20034;-77
2024/02/04 01:19:25;;;;;;;17.02;5.18;;;7.40;99.90;;;;;;4954664;28;20134;-75
2024/02/04 01:21:51;;;;;;;19.90;5.07;;;7.40;99.90;;;;;;4955352;28;20510;-75
2024/02/04 01:24:17;;;;;;;23.30;5.43;;;7.30;99.90;;;;;;4955779;29;20033;-75
2024/02/04 01:26:42;;;;;;;24.38;5.72;;;7.30;99.90;;;;;;4955647;29;20023;-75
2024/02/04 01:29:08;;;;;;;21.30;4.97;;;7.30;99.90;;;;;;4955346;28;20026;-76
2024/02/04 01:31:34;;;;;;;19.88;5.68;;;7.30;99.90;;;;;;4955101;28;20042;-75
2024/02/04 01:33:59;;;;;;;25.45;6.18;;;7.30;99.90;;;;;;4938434;29;20027;-74
2024/02/04 01:36:25;;;;;;;25.95;5.97;;;7.30;99.90;;;;;;4955332;28;20391;-74
2024/02/04 01:38:50;;;;;;;24.00;6.07;;;7.40;99.90;;;;;;4937108;28;20095;-74
2024/02/04 01:41:16;;;;;;;19.92;5.15;;;7.30;99.90;;;;;;4937828;29;20043;-72
2024/02/04 01:43:42;;;;;;;20.17;5.80;;;7.30;99.90;;;;;;4954950;28;20108;-74
2024/02/04 01:46:08;;;;;;;19.70;5.43;;;7.30;99.90;;;;;;4938185;29;20030;-74
2024/02/04 01:48:34;;;;;;;16.20;5.57;;;7.30;99.90;;;;;;4938288;29;20464;-71
2024/02/04 01:51:00;;;;;;;23.90;6.00;;;7.30;99.90;;;;;;4937367;29;20054;-76
2024/02/04 01:53:27;;;;;;;26.98;6.20;;;7.30;99.90;;;;;;4936839;29;20134;-73
2024/02/04 01:55:54;;;;;;;18.58;6.22;;;7.30;99.90;;;;;;4954424;28;20057;-74
2024/02/04 01:58:20;;;;;;;22.85;6.30;;;7.30;99.90;;;;;;4937167;29;20051;-71
2024/02/04 02:00:47;;;;;;;22.80;7.15;;;7.40;99.90;;;;;;4953888;28;20035;-72
2024/02/04 02:03:15;;;;;;;29.65;7.47;;;7.30;99.90;;;;;;4954946;28;20035;-73
2024/02/04 02:05:41;;;;;;;22.95;7.40;;;7.30;99.90;;;;;;4955002;29;20050;-73
2024/02/04 02:08:07;;;;;;;26.23;7.63;;;7.30;99.90;;;;;;4937186;29;20027;-73
2024/02/04 02:10:33;;;;;;;27.35;7.72;;;7.30;99.90;;;;;;4954488;28;20035;-73
2024/02/04 02:13:06;;;;;;;22.30;7.45;;;7.20;99.90;;;;;;4953882;28;20030;-73
2024/02/04 02:15:36;;;;;;;21.75;7.25;;;7.20;99.90;;;;;;4954270;28;20028;-73
2024/02/04 02:18:04;;;;;;;30.45;8.05;;;7.20;99.90;;;;;;4954755;29;20087;-74
2024/02/04 02:21:07;;;;;;;27.92;8.60;;;7.10;99.90;;;;;;4937454;29;20027;-73
2024/02/04 02:23:45;;;;;;;21.15;8.05;;;7.00;99.90;;;;;;4953704;28;20472;-75
2024/02/04 02:26:11;;;;;;;21.73;8.70;;;7.00;99.90;;;;;;4954261;28;20063;-73
2024/02/04 02:28:37;;;;;;;28.00;9.52;;;7.00;99.90;;;;;;4953147;28;20023;-74
2024/02/04 02:31:02;;;;;;;27.73;9.23;;;6.90;99.90;;;;;;4954490;28;20035;-73
2024/02/04 02:33:28;;;;;;;33.53;10.43;;;7.00;99.90;;;;;;4954258;28;20108;-75
2024/02/04 02:35:57;;;;;;;29.77;9.07;;;7.00;99.90;;;;;;4936662;29;20042;-75
2024/02/04 02:38:43;;;;;;;27.40;8.25;;;6.90;99.90;;;;;;4954100;28;20023;-78
2024/02/04 02:41:11;;;;;;;39.85;9.35;;;6.90;99.90;;;;;;4953814;28;20118;-73
2024/02/04 02:43:40;;;;;;;27.73;8.90;;;6.90;99.90;;;;;;4953529;28;20047;-74
2024/02/04 02:46:07;;;;;;;29.80;10.40;;;6.90;99.90;;;;;;4954472;28;20031;-75
2024/02/04 02:48:33;;;;;;;27.77;9.45;;;6.80;99.90;;;;;;4954212;28;20058;-76
2024/02/04 02:50:58;;;;;;;28.00;9.32;;;6.90;99.90;;;;;;4936536;29;20094;-77
2024/02/04 02:53:24;;;;;;;28.30;8.77;;;6.80;99.90;;;;;;4937020;28;20023;-74
2024/02/04 02:55:50;;;;;;;21.67;8.65;;;6.80;99.90;;;;;;4936334;29;20043;-73
2024/02/04 02:58:15;;;;;;;23.83;8.82;;;6.80;99.90;;;;;;4953666;28;20626;-76
2024/02/04 03:00:41;;;;;;;29.63;9.25;;;6.80;99.90;;;;;;4953326;29;20055;-73
2024/02/04 03:03:06;;;;;;;36.67;9.10;;;6.80;99.90;;;;;;4936301;29;20027;-75
2024/02/04 03:05:32;;;;;;;27.27;8.32;;;6.80;99.90;;;;;;4936723;29;20039;-74
2024/02/04 03:07:58;;;;;;;26.00;8.52;;;6.70;99.90;;;;;;4953995;28;20042;-76
2024/02/04 03:10:24;;;;;;;26.20;9.10;;;6.70;99.90;;;;;;4935967;29;20087;-75
2024/02/04 03:12:50;;;;;;;30.90;8.13;;;6.70;99.90;;;;;;4936155;28;20055;-74
2024/02/04 03:15:15;;;;;;;29.30;8.05;;;6.70;99.90;;;;;;4953030;28;20110;-75
2024/02/04 03:17:42;;;;;;;26.83;8.30;;;6.80;99.90;;;;;;4953126;29;20059;-74
2024/02/04 03:20:09;;;;;;;26.85;7.57;;;6.60;99.90;;;;;;4953530;28;20031;-73
2024/02/04 03:22:34;;;;;;;21.98;6.80;;;6.60;99.90;;;;;;4936008;28;20062;-73
2024/02/04 03:25:00;;;;;;;26.88;7.57;;;6.60;99.90;;;;;;4935622;29;20110;-74
2024/02/04 03:27:26;;;;;;;23.33;7.32;;;6.60;99.90;;;;;;4935978;29;21430;-74
2024/02/04 03:29:51;;;;;;;34.28;7.60;;;6.60;99.90;;;;;;4953283;28;20107;-73
2024/02/04 03:32:17;;;;;;;26.77;7.35;;;6.50;99.90;;;;;;4953445;28;20023;-73
2024/02/04 03:34:43;;;;;;;28.30;6.95;;;6.50;99.90;;;;;;4935890;29;20023;-74
2024/02/04 03:37:08;;;;;;;23.77;6.30;;;6.50;99.90;;;;;;4935577;29;20055;-74
2024/02/04 03:39:34;;;;;;;33.08;7.07;;;6.50;99.90;;;;;;4936050;29;20050;-73
2024/02/04 03:41:59;;;;;;;28.65;6.60;;;6.50;99.90;;;;;;4952971;28;20031;-74
2024/02/04 03:44:25;;;;;;;30.33;6.38;;;6.40;99.90;;;;;;4953480;28;20027;-72
2024/02/04 03:46:51;;;;;;;23.90;6.38;;;6.40;99.90;;;;;;4935366;29;20085;-74
2024/02/04 03:49:17;;;;;;;28.60;6.78;;;6.40;99.90;;;;;;4953586;28;20397;-73
2024/02/04 03:51:43;;;;;;;13.52;4.78;;;6.40;99.90;;;;;;4936165;29;20534;-73
2024/02/04 03:54:08;;;;;;;23.90;5.28;;;6.40;99.90;;;;;;4935519;29;20090;-74
2024/02/04 03:56:34;;;;;;;19.08;6.75;;;6.40;99.90;;;;;;4953422;29;20032;-74
2024/02/04 03:58:59;;;;;;;22.38;5.38;;;6.40;99.90;;;;;;4953308;28;20031;-74
2024/02/04 04:01:25;;;;;;;24.73;5.60;;;6.40;99.90;;;;;;4935675;29;20099;-74
2024/02/04 04:03:50;;;;;;;19.98;4.70;;;6.30;99.90;;;;;;4952738;28;20078;-75
2024/02/04 04:06:16;;;;;;;28.45;5.22;;;6.30;99.90;;;;;;4935252;28;20132;-74
2024/02/04 04:08:42;;;;;;;18.15;4.50;;;6.30;99.90;;;;;;4935903;28;20067;-77
2024/02/04 04:11:10;;;;;;;23.88;5.00;;;6.30;99.90;;;;;;4935926;28;20019;-74
2024/02/04 04:13:35;;;;;;;23.30;4.40;;;6.30;99.90;;;;;;4935311;29;20030;-76
2024/02/04 04:16:02;;;;;;;20.77;4.10;;;6.20;99.90;;;;;;4935594;29;20091;-76
2024/02/04 04:18:28;;;;;;;20.90;4.70;;;6.30;99.90;;;;;;4951398;28;20023;-74
2024/02/04 04:20:53;;;;;;;23.55;4.28;;;6.30;99.90;;;;;;4935075;28;20032;-73
2024/02/04 04:23:19;;;;;;;23.98;5.10;;;6.30;99.90;;;;;;4952692;28;20059;-73
2024/02/04 04:25:44;;;;;;;16.67;4.25;;;6.30;99.90;;;;;;4952487;28;20090;-76
2024/02/04 04:28:10;;;;;;;19.30;4.55;;;6.30;99.90;;;;;;4952696;28;20031;-77
2024/02/04 04:30:35;;;;;;;28.33;4.40;;;6.20;99.90;;;;;;4936028;29;20091;-76
2024/02/04 04:33:01;;;;;;;18.85;3.83;;;6.20;99.90;;;;;;4935662;29;20104;-76
2024/02/04 04:35:27;;;;;;;23.05;4.35;;;6.30;99.90;;;;;;4935511;29;20080;-73
2024/02/04 04:37:52;;;;;;;20.15;3.40;;;6.30;99.90;;;;;;4953267;28;20054;-77
2024/02/04 04:40:18;;;;;;;22.65;3.50;;;6.30;99.90;;;;;;4935418;29;20019;-74
2024/02/04 04:42:44;;;;;;;18.75;3.72;;;6.30;99.90;;;;;;4952559;28;20032;-75
2024/02/04 04:45:10;;;;;;;24.38;3.42;;;6.20;99.90;;;;;;4935993;29;20118;-74
2024/02/04 04:47:37;;;;;;;20.63;3.80;;;6.20;99.90;;;;;;4935364;29;20412;-76
2024/02/04 04:50:04;;;;;;;24.92;3.90;;;6.30;99.90;;;;;;4950692;29;20062;-77
2024/02/04 04:52:30;;;;;;;18.55;3.30;;;6.20;99.90;;;;;;4937029;29;20027;-75
2024/02/04 04:54:56;;;;;;;19.55;3.15;;;6.20;99.90;;;;;;4936882;29;20047;-77
2024/02/04 04:57:21;;;;;;;20.00;3.10;;;6.20;99.90;;;;;;4937575;29;20489;-78
2024/02/04 04:59:47;;;;;;;18.00;3.13;;;6.20;99.90;;;;;;4938666;29;20038;-77
2024/02/04 05:02:13;;;;;;;19.33;2.83;;;6.20;99.90;;;;;;4938198;29;20035;-77
2024/02/04 05:04:42;;;;;;;21.90;3.17;;;6.20;99.90;;;;;;4937927;29;20024;-76
2024/02/04 05:07:07;;;;;;;21.48;3.67;;;6.20;99.90;;;;;;4941272;28;20034;-77
2024/02/04 05:09:33;;;;;;;18.33;2.80;;;6.20;99.90;;;;;;4955841;28;20071;-79
2024/02/04 05:11:58;;;;;;;17.95;3.65;;;6.20;99.90;;;;;;4938276;28;20047;-78
2024/02/04 05:14:24;;;;;;;17.92;3.17;;;6.20;99.90;;;;;;4938371;29;20054;-77
2024/02/04 05:16:49;;;;;;;19.15;3.13;;;6.10;99.90;;;;;;4937140;29;20122;-78
2024/02/04 05:19:15;;;;;;;17.20;2.90;;;6.20;99.90;;;;;;4955055;28;20020;-78
2024/02/04 05:21:40;;;;;;;20.08;2.92;;;6.20;99.90;;;;;;4937313;29;20082;-77
2024/02/04 05:24:06;;;;;;;21.55;2.75;;;6.10;99.90;;;;;;4938368;29;20043;-77
2024/02/04 05:26:31;;;;;;;14.13;2.35;;;6.30;99.90;;;;;;4953288;28;20143;-76
2024/02/04 05:28:57;;;;;;;19.02;2.65;;;6.20;99.90;;;;;;4955060;28;20024;-78
2024/02/04 05:31:23;;;;;;;13.77;2.40;;;6.20;99.90;;;;;;4955023;28;20031;-76
2024/02/04 05:33:48;;;;;;;14.07;2.33;;;6.20;99.90;;;;;;4938080;29;20023;-77
2024/02/04 05:36:14;;;;;;;13.02;2.00;;;6.20;99.90;;;;;;4938487;29;20039;-75
2024/02/04 05:38:42;;;;;;;19.75;2.30;;;6.20;99.90;;;;;;4954729;28;20026;-78
2024/02/04 05:41:07;;;;;;;21.85;2.90;;;6.20;99.90;;;;;;4955194;28;20051;-79
2024/02/04 05:43:33;;;;;;;20.55;2.88;;;6.20;99.90;;;;;;4955452;29;20038;-77
2024/02/04 05:45:58;;;;;;;13.10;2.30;;;6.20;99.90;;;;;;4935889;29;20963;-77
2024/02/04 05:48:24;;;;;;;17.33;2.38;;;6.20;99.90;;;;;;4941780;29;20028;-77
2024/02/04 05:50:50;;;;;;;23.83;3.72;;;6.20;99.90;;;;;;4955919;28;20023;-77
2024/02/04 05:53:15;;;;;;;20.50;2.88;;;6.10;99.90;;;;;;4954068;28;20059;-78
2024/02/04 05:55:41;;;;;;;20.27;2.75;;;6.20;99.90;;;;;;4953119;29;20039;-79
2024/02/04 05:58:06;;;;;;;21.35;2.60;;;6.20;99.90;;;;;;4938310;29;20028;-78
2024/02/04 06:00:32;;;;;;;20.98;2.58;;;6.20;99.90;;;;;;4937324;28;20020;-77
2024/02/04 06:02:57;;;;;;;17.10;2.50;;;6.20;99.90;;;;;;4937293;28;20059;-76
2024/02/04 06:05:23;;;;;;;21.30;2.40;;;6.20;99.90;;;;;;4953648;29;20037;-77
2024/02/04 06:07:49;;;;;;;18.85;2.33;;;6.20;99.90;;;;;;4950985;28;20108;-76
2024/02/04 06:10:14;;;;;;;16.52;2.30;;;6.20;99.90;;;;;;4952026;28;20052;-75
2024/02/04 06:12:40;;;;;;;16.73;2.17;;;6.20;99.90;;;;;;4951871;28;20472;-77
2024/02/04 06:15:12;;;;;;;21.00;2.85;;;6.20;99.90;;;;;;4953887;28;20046;-78
2024/02/04 06:17:38;;;;;;;15.05;2.17;;;6.20;99.90;;;;;;4954608;28;20170;-75
2024/02/04 06:20:04;;;;;;;16.85;2.58;;;6.10;99.90;;;;;;4936360;29;20031;-74
2024/02/04 06:22:29;;;;;;;21.88;2.53;;;6.20;99.90;;;;;;4936831;28;20120;-76
2024/02/04 06:24:55;;;;;;;18.77;2.78;;;6.20;99.90;;;;;;4952909;28;20028;-78
2024/02/04 06:27:20;;;;;;;16.15;2.38;;;6.20;99.90;;;;;;4936863;29;20023;-77
2024/02/04 06:29:46;;;;;;;13.98;3.08;;;6.20;99.90;;;;;;4953139;29;20168;-74
2024/02/04 06:32:13;;;;;;;12.60;1.98;;;6.20;99.90;;;;;;4936243;29;20039;-78
2024/02/04 06:34:38;;;;;;;17.77;2.90;;;6.20;99.90;;;;;;4953882;29;20072;-76
2024/02/04 06:37:04;;;;;;;14.43;2.45;;;6.30;99.90;;;;;;4936630;29;20032;-74
2024/02/04 06:39:29;;;;;;;18.33;3.13;;;6.20;99.90;;;;;;4953428;28;20091;-74
2024/02/04 06:41:55;;;;;;;19.58;2.55;;;6.20;99.90;;;;;;4953155;29;20745;-74
2024/02/04 06:44:21;;;;;;;14.48;2.60;;;6.20;99.90;;;;;;4953602;28;20035;-75
2024/02/04 06:46:47;;;;;;;16.85;2.72;;;6.20;99.90;;;;;;4936516;29;20118;-75
2024/02/04 06:49:18;;;;;;;23.65;3.10;;;6.20;99.90;;;;;;4953488;28;20022;-77
2024/02/04 06:51:43;;;;;;;19.75;3.17;;;6.20;99.90;;;;;;4954107;29;20027;-77
2024/02/04 06:54:10;;;;;;;16.52;2.63;;;6.20;99.90;;;;;;4937295;29;20019;-76
2024/02/04 06:56:36;;;;;;;18.48;3.67;;;6.20;99.90;;;;;;4947931;29;20036;-77
2024/02/04 06:59:02;;;;;;;18.60;3.50;;;6.20;99.90;;;;;;4952858;28;20027;-76
2024/02/04 07:01:28;;;;;;;15.82;3.03;;;6.30;99.90;;;;;;4949978;28;20068;-76
2024/02/04 07:03:53;;;;;;;20.45;3.33;;;6.20;99.90;;;;;;4935871;28;20055;-77
2024/02/04 07:06:19;;;;;;;21.58;3.67;;;6.30;99.90;;;;;;4934893;29;20028;-78
2024/02/04 07:08:44;;;;;;;16.90;3.55;;;6.30;99.90;;;;;;4935202;28;20500;-76
2024/02/04 07:11:10;;;;;;;20.00;4.50;;;6.30;99.90;;;;;;4953487;28;20035;-74
2024/02/04 07:13:35;;;;;;;26.38;4.72;;;6.30;99.90;;;;;;4934914;29;20039;-77
2024/02/04 07:16:01;;;;;;;22.17;4.68;;;6.30;99.90;;;;;;4935947;28;20022;-75
2024/02/04 07:18:26;;;;;;;24.23;4.63;;;6.40;99.90;;;;;;4935369;28;20110;-77
2024/02/04 07:20:52;;;;;;;22.70;5.07;;;6.40;99.90;;;;;;4936330;28;20054;-75
2024/02/04 07:23:17;;;;;;;20.83;5.18;;;6.40;99.90;;;;;;4953203;28;20034;-75
2024/02/04 07:25:43;;;;;;;16.85;4.97;;;6.40;99.90;;;;;;4953549;28;20019;-77
2024/02/04 07:28:09;;;;;;;23.40;5.68;;;6.40;99.90;;;;;;4935792;29;20126;-79
2024/02/04 07:30:34;;;;;;;23.38;5.95;;;6.40;99.90;;;;;;4936593;29;20090;-78
2024/02/04 07:33:00;;;;;;;15.88;5.53;;;6.50;99.90;;;;;;4935784;29;20023;-76
2024/02/04 07:35:26;;;;;;;23.23;6.13;;;6.50;99.90;;;;;;4934076;29;20028;-79
2024/02/04 07:37:51;;;;;;;25.77;5.40;;;6.50;99.90;;;;;;4934544;29;20066;-77
2024/02/04 07:40:17;;;;;;;15.55;4.97;;;6.50;99.90;;;;;;4951486;28;20031;-75
2024/02/04 07:42:42;;;;;;;14.70;4.60;;;6.50;99.90;;;;;;4933599;29;20054;-75
2024/02/04 07:45:09;;;;;;;21.35;5.78;;;6.50;99.90;;;;;;4933285;29;20059;-74
2024/02/04 07:47:35;;;;;;;28.13;5.63;;;6.50;99.90;;;;;;4949782;28;20055;-77
2024/02/04 07:50:01;;;;;;;26.02;6.82;;;6.60;99.90;;;;;;4949601;29;20031;-76
2024/02/04 07:52:26;;;;;;;20.17;5.22;;;6.60;99.90;;;;;;4950044;29;20023;-75
2024/02/04 07:54:52;;;;;;;18.98;5.47;;;6.60;99.90;;;;;;4934959;29;20039;-75
2024/02/04 07:57:18;;;;;;;17.02;5.15;;;6.60;99.90;;;;;;4929189;29;20505;-74
2024/02/04 07:59:43;;;;;;;20.23;4.90;;;6.70;99.90;;;;;;4951606;28;20539;-75
2024/02/04 08:02:09;;;;;;;14.45;4.45;;;6.70;99.90;;;;;;4934196;29;20043;-77
2024/02/04 08:04:34;;;;;;;23.73;5.68;;;6.70;99.90;;;;;;4936103;29;20091;-75
2024/02/04 08:07:00;;;;;;;21.42;4.68;;;6.80;99.90;;;;;;4953019;28;20056;-75
2024/02/04 08:09:26;;;;;;;21.33;5.10;;;6.70;99.90;;;;;;4934494;29;20051;-75
2024/02/04 08:11:51;;;;;;;17.88;3.95;;;6.70;99.90;;;;;;4947988;28;20039;-75
2024/02/04 08:14:18;;;;;;;26.80;5.00;;;6.90;99.90;;;;;;4934350;29;20058;-76
2024/02/04 08:16:46;;;;;;;17.55;3.65;;;6.80;99.90;;;;;;4950610;29;20047;-74
2024/02/04 08:19:11;;;;;;;22.30;4.25;;;6.80;99.90;;;;;;4950723;28;20032;-74
2024/02/04 08:21:37;;;;;;;19.30;4.15;;;6.90;99.90;;;;;;4935430;29;20063;-75
2024/02/04 08:24:03;;;;;;;22.35;4.38;;;6.80;99.90;;;;;;4935708;29;20023;-73
2024/02/04 08:26:28;;;;;;;21.92;4.05;;;6.90;99.90;;;;;;4934824;28;20580;-76
2024/02/04 08:28:54;;;;;;;29.20;3.78;;;6.90;99.90;;;;;;4938809;29;20128;-75
2024/02/04 08:31:20;;;;;;;21.58;3.65;;;6.90;99.90;;;;;;4956090;29;20043;-75
2024/02/04 08:33:45;;;;;;;21.60;4.30;;;6.90;99.90;;;;;;4938430;29;20412;-75
2024/02/04 08:36:11;;;;;;;16.65;3.60;;;7.00;99.90;;;;;;4937544;29;20057;-74
2024/02/04 08:38:37;;;;;;;28.98;6.13;;;7.00;99.90;;;;;;4953783;28;20047;-74
2024/02/04 08:41:03;;;;;;;19.10;3.88;;;7.00;99.90;;;;;;4936268;28;20408;-75
2024/02/04 08:43:29;;;;;;;23.98;4.75;;;7.00;99.90;;;;;;4954402;28;20402;-77
2024/02/04 08:45:54;;;;;;;25.33;3.70;;;7.10;99.90;;;;;;4954860;28;20111;-77
2024/02/04 08:48:20;;;;;;;27.50;4.40;;;7.10;99.90;;;;;;4952334;29;20031;-75
2024/02/04 08:50:45;;;;;;;20.85;3.55;;;7.10;99.90;;;;;;4936817;28;20023;-75
2024/02/04 08:53:11;;;;;;;25.75;4.07;;;7.10;99.90;;;;;;4954627;29;20051;-75
2024/02/04 08:55:37;;;;;;;19.67;3.33;;;7.10;99.90;;;;;;4939136;29;20055;-76
2024/02/04 08:58:02;;;;;;;15.35;2.80;;;7.10;99.90;;;;;;4934274;29;20039;-74
2024/02/04 09:00:28;;;;;;;19.08;3.40;;;7.10;99.90;;;;;;4936984;29;20493;-76
2024/02/04 09:02:53;;;;;;;18.77;3.53;;;7.10;99.90;;;;;;4935344;29;20039;-76
2024/02/04 09:05:20;;;;;;;22.98;4.03;;;7.10;99.90;;;;;;4954903;28;20036;-76
2024/02/04 09:07:45;;;;;;;23.33;3.50;;;7.20;99.90;;;;;;4949969;28;20020;-76
2024/02/04 09:10:12;;;;;;;23.98;3.67;;;7.20;99.90;;;;;;4936151;28;20113;-78
2024/02/04 09:12:38;;;;;;;20.77;3.10;;;7.20;99.90;;;;;;4937946;29;20027;-75
2024/02/04 09:15:04;;;;;;;23.65;3.72;;;7.20;99.90;;;;;;4952797;28;20028;-76
2024/02/04 09:17:31;;;;;;;14.07;3.17;;;7.30;99.90;;;;;;4954326;28;20054;-74
2024/02/04 09:19:57;;;;;;;21.98;3.60;;;7.30;99.90;;;;;;4954461;28;20023;-75
2024/02/04 09:22:23;;;;;;;19.08;3.55;;;7.30;99.90;;;;;;4955345;28;20035;-76
2024/02/04 09:24:49;;;;;;;19.70;3.08;;;7.30;99.90;;;;;;4935332;29;20027;-75
2024/02/04 09:27:14;;;;;;;15.82;3.30;;;7.50;99.90;;;;;;4934823;29;20027;-73
2024/02/04 09:29:40;;;;;;;21.45;3.30;;;7.40;99.90;;;;;;4951946;29;20055;-75
2024/02/04 09:32:05;;;;;;;23.70;3.95;;;7.40;99.90;;;;;;4937096;29;20032;-75
2024/02/04 09:34:31;;;;;;;27.70;4.05;;;7.50;99.90;;;;;;4955016;28;20104;-74
2024/02/04 09:36:57;;;;;;;25.17;4.07;;;7.50;99.90;;;;;;4955246;29;20039;-74
2024/02/04 09:39:22;;;;;;;21.63;3.70;;;7.50;99.90;;;;;;4950615;29;20142;-76
2024/02/04 09:41:48;;;;;;;20.25;3.47;;;7.60;99.90;;;;;;4934809;28;20058;-76
2024/02/04 09:44:14;;;;;;;16.65;3.10;;;7.60;99.90;;;;;;4955710;28;20047;-71
2024/02/04 09:46:40;;;;;;;26.38;3.85;;;7.60;99.90;;;;;;4934224;29;20694;-73
2024/02/04 09:49:08;;;;;;;28.45;3.72;;;7.60;99.90;;;;;;4934750;29;20039;-75
2024/02/04 09:51:34;;;;;;;27.95;3.22;;;7.70;99.90;;;;;;4937112;29;20036;-74
2024/02/04 09:54:06;;;;;;;17.48;3.45;;;7.70;99.90;;;;;;4937829;29;20089;-75
2024/02/04 09:56:33;;;;;;;15.18;3.50;;;7.70;99.90;;;;;;4937273;29;20082;-73
2024/02/04 09:58:58;;;;;;;17.55;3.25;;;7.80;99.90;;;;;;4954431;28;20032;-77
2024/02/04 10:01:26;;;;;;;30.80;4.15;;;7.80;99.90;;;;;;4937042;29;20042;-72
2024/02/04 10:03:52;;;;;;;21.02;4.07;;;7.80;99.90;;;;;;4954934;28;20039;-74
2024/02/04 10:06:17;;;;;;;20.45;3.55;;;7.90;99.90;;;;;;4936521;29;20062;-77
2024/02/04 10:08:43;;;;;;;20.20;3.20;;;7.90;99.90;;;;;;4937231;29;20511;-76
2024/02/04 10:11:09;;;;;;;19.30;3.38;;;7.90;99.90;;;;;;4937974;29;20031;-74
2024/02/04 10:13:46;;;;;;;21.63;3.22;;;7.90;99.90;;;;;;4938313;29;20046;-77
2024/02/04 10:16:16;;;;;;;20.35;3.55;;;8.00;99.90;;;;;;4954340;28;20035;-75
2024/02/04 10:18:42;;;;;;;16.35;3.85;;;8.00;99.90;;;;;;4954683;28;20015;-74
2024/02/04 10:21:19;;;;;;;14.40;3.88;;;8.00;99.90;;;;;;4936929;29;20138;-76
2024/02/04 10:23:45;;;;;;;19.45;4.25;;;8.10;99.90;;;;;;4935643;29;20040;-77
2024/02/04 10:26:11;;;;;;;14.13;2.80;;;8.00;99.90;;;;;;4937106;29;20027;-77
2024/02/04 10:28:37;;;;;;;16.20;3.80;;;8.10;99.90;;;;;;4937423;29;20028;-76
2024/02/04 10:31:03;;;;;;;15.57;3.30;;;8.10;99.90;;;;;;4954438;28;20030;-75
2024/02/04 10:33:32;;;;;;;18.45;4.07;;;8.10;99.90;;;;;;4937473;29;20031;-75
2024/02/04 10:35:58;;;;;;;16.92;3.80;;;8.20;99.90;;;;;;4954535;28;20035;-74
2024/02/04 10:38:25;;;;;;;21.75;3.90;;;8.30;99.90;;;;;;4954007;28;20404;-76
2024/02/04 10:40:53;;;;;;;16.23;5.50;;;8.30;99.90;;;;;;4937082;29;20665;-76
2024/02/04 10:43:21;;;;;;;23.88;3.70;;;8.40;99.90;;;;;;4952650;29;20342;-73
2024/02/04 10:45:47;;;;;;;25.02;3.55;;;8.50;99.90;;;;;;4954273;28;20075;-76
2024/02/04 10:48:19;;;;;;;17.95;3.45;;;8.60;99.90;;;;;;4936217;29;20023;-75
2024/02/04 10:50:46;;;;;;;17.25;3.55;;;8.70;99.90;;;;;;4953654;28;20027;-75
2024/02/04 10:53:14;;;;;;;15.68;3.13;;;8.80;99.90;;;;;;4936775;29;20050;-75
2024/02/04 10:55:46;;;;;;;16.10;3.83;;;8.90;99.90;;;;;;4936441;29;20035;-76
2024/02/04 10:58:13;;;;;;;17.52;3.13;;;9.00;99.90;;;;;;4953647;28;20071;-80
2024/02/04 11:00:41;;;;;;;18.88;3.35;;;9.10;99.90;;;;;;4937251;29;20495;-78
2024/02/04 11:03:06;;;;;;;18.83;3.40;;;9.10;99.90;;;;;;4936546;29;20428;-77
2024/02/04 11:05:34;;;;;;;18.70;3.22;;;9.10;99.90;;;;;;4935409;29;20183;-78
2024/02/04 11:08:01;;;;;;;19.83;3.75;;;9.10;99.90;;;;;;4953764;28;20033;-75
2024/02/04 11:10:28;;;;;;;20.23;3.35;;;9.10;99.90;;;;;;4928595;29;20054;-75
2024/02/04 11:12:55;;;;;;;19.88;3.78;;;9.10;99.90;;;;;;4931825;29;20036;-77
2024/02/04 11:15:24;;;;;;;9.05;2.75;;;9.00;99.90;;;;;;4933375;29;20031;-76
2024/02/04 11:18:12;;;;;;;22.80;3.53;;;8.90;99.90;;;;;;4933089;29;20023;-74
2024/02/04 11:21:06;;;;;;;19.00;3.20;;;8.90;99.90;;;;;;4934373;29;20437;-76
2024/02/04 11:23:54;;;;;;;17.63;3.30;;;8.90;99.90;;;;;;4932338;29;20024;-76
2024/02/04 11:26:20;;;;;;;17.30;3.50;;;8.90;99.90;;;;;;4933742;29;20087;-73
2024/02/04 11:28:46;;;;;;;17.55;3.90;;;8.90;99.90;;;;;;4933400;29;20023;-75
2024/02/04 11:31:18;;;;;;;18.02;3.60;;;8.90;99.90;;;;;;4933178;29;20054;-76
2024/02/04 11:33:45;;;;;;;14.98;3.60;;;8.90;99.90;;;;;;4934543;29;20019;-73
2024/02/04 11:36:15;;;;;;;15.93;3.97;;;8.90;99.90;;;;;;4934565;29;20616;-74
2024/02/04 11:38:41;;;;;;;18.02;3.38;;;8.90;99.90;;;;;;4933932;29;20068;-75
2024/02/04 11:41:08;;;;;;;14.15;3.63;;;8.90;99.90;;;;;;4933024;29;20036;-77
2024/02/04 11:43:34;;;;;;;14.95;3.47;;;9.00;99.90;;;;;;4933131;29;20020;-77
2024/02/04 11:46:02;;;;;;;18.30;3.30;;;9.00;99.90;;;;;;4932366;29;20026;-74
2024/02/04 11:48:33;;;;;;;19.42;4.03;;;8.90;99.90;;;;;;4925694;29;20039;-74
2024/02/04 11:51:02;;;;;;;20.48;3.95;;;9.00;99.90;;;;;;4929410;29;20039;-76
2024/02/04 11:53:32;;;;;;;12.48;3.03;;;9.00;99.90;;;;;;4932711;29;20091;-78
2024/02/04 11:56:00;;;;;;;18.23;3.65;;;9.10;99.90;;;;;;4932991;29;20046;-75
2024/02/04 11:58:26;;;;;;;15.95;3.38;;;9.30;99.90;;;;;;4934106;29;20055;-77
2024/02/04 12:00:55;;;;;;;16.40;3.55;;;9.40;99.90;;;;;;4932169;29;20035;-70
2024/02/04 12:03:30;;;;;;;10.68;3.00;;;9.40;99.90;;;;;;4936775;29;20024;-78
2024/02/04 12:05:56;;;;;;;17.10;3.55;;;9.30;99.90;;;;;;4936489;29;20056;-75
2024/02/04 12:08:22;;;;;;;16.10;3.33;;;9.30;99.90;;;;;;4937321;29;20509;-77
2024/02/04 12:10:48;;;;;;;19.67;4.10;;;9.30;99.90;;;;;;4938475;29;20034;-77
2024/02/04 12:13:14;;;;;;;14.10;3.63;;;9.30;99.90;;;;;;4938450;29;20107;-77
2024/02/04 12:15:40;;;;;;;13.82;3.10;;;9.20;99.90;;;;;;4939133;29;20030;-74
2024/02/04 12:18:09;;;;;;;16.08;3.55;;;9.20;99.90;;;;;;4940054;28;20160;-75
2024/02/04 12:20:36;;;;;;;12.88;2.95;;;9.10;99.90;;;;;;4939472;29;20448;-76
2024/02/04 12:23:06;;;;;;;21.20;3.95;;;9.10;99.90;;;;;;4939191;28;20709;-77
2024/02/04 12:25:32;;;;;;;14.45;3.22;;;9.00;99.90;;;;;;4938592;28;20020;-78
2024/02/04 12:27:59;;;;;;;18.90;3.75;;;9.00;99.90;;;;;;4938032;29;20035;-73
2024/02/04 12:30:26;;;;;;;18.65;3.35;;;9.00;99.90;;;;;;4939410;28;20046;-75
2024/02/04 12:32:58;;;;;;;15.80;3.35;;;8.90;99.90;;;;;;4955781;29;20791;-77
2024/02/04 12:35:25;;;;;;;15.57;3.53;;;9.00;99.90;;;;;;4956803;29;20087;-76
2024/02/04 12:37:52;;;;;;;15.60;4.47;;;9.00;99.90;;;;;;4955576;28;20024;-73
2024/02/04 12:40:25;;;;;;;12.77;3.03;;;9.00;99.90;;;;;;4955612;28;20059;-77
2024/02/04 12:42:58;;;;;;;13.93;3.53;;;9.00;99.90;;;;;;4956636;28;20043;-79
2024/02/04 12:45:24;;;;;;;10.35;2.45;;;9.00;99.90;;;;;;4939037;28;20027;-77